PWSweather.com
Personal Weather Stations
Station Observations
IMAZOWIE6
WarszawaPL

WarszawaPL

Lat: 52.27957, Lon: 21.05489

Elevation: 100

Station Type: WS1080

http://stacjapogody.waw.pl/

High Low Average
Temperature 57.6°F14.2°C 37.0°F2.8°C 46.8°F8.2°C
Dew Point -167.0°F-110.6°C -169.1°F-111.7°C -168.1°F-111.2°C
Winds 2.8 mph 4.5 kmh Calm Calm 1.0 mph N1.6 kmh N
Wind Gusts 6.2 mph10.0 kmh 1.4 mph2.3 kmh 3.0 mph4.8 kmh
Humidity - - -
Pressure 29.45 in997.3 mb 29.16 in987.5 mb -
Precipitation 0.00 in0.0 mm - -
Hour Temp Dew Point Humidity Winds Wind Gusts Pressure Precip Precip Rate Daily Precip Total
12:01 AM 37.6°F3.1°C -169.0°F-111.7°C - 0.6 mph N1.0 kmh N 3.4 mph5.5 kmh 29.45 in997.3 mb 0.00 in0.0 mm 0.00 in0.0 mm 0.00 in0.0 mm
12:21 AM 37.8°F3.2°C -169.0°F-111.7°C - 0.6 mph N1.0 kmh N 2.8 mph4.5 kmh 29.44 in997.0 mb 0.00 in0.0 mm 0.00 in0.0 mm 0.00 in0.0 mm
12:36 AM 37.4°F3.0°C -169.1°F-111.7°C - 1.4 mph N2.3 kmh N 3.4 mph5.5 kmh 29.43 in996.6 mb 0.00 in0.0 mm 0.00 in0.0 mm 0.00 in0.0 mm
12:51 AM 37.2°F2.9°C -169.1°F-111.7°C - 1.4 mph N2.3 kmh N 4.0 mph6.4 kmh 29.43 in996.6 mb 0.00 in0.0 mm 0.00 in0.0 mm 0.00 in0.0 mm
01:06 AM 37.0°F2.8°C -169.1°F-111.7°C - 2.0 mph N3.2 kmh N 2.8 mph4.5 kmh 29.42 in996.3 mb 0.00 in0.0 mm 0.00 in0.0 mm 0.00 in0.0 mm
01:21 AM 37.2°F2.9°C -169.1°F-111.7°C - 1.4 mph N2.3 kmh N 3.4 mph5.5 kmh 29.42 in996.3 mb 0.00 in0.0 mm 0.00 in0.0 mm 0.00 in0.0 mm
01:36 AM 37.0°F2.8°C -169.1°F-111.7°C - 0.6 mph N1.0 kmh N 2.8 mph4.5 kmh 29.42 in996.3 mb 0.00 in0.0 mm 0.00 in0.0 mm 0.00 in0.0 mm
01:51 AM 37.4°F3.0°C -169.1°F-111.7°C - 1.4 mph N2.3 kmh N 4.8 mph7.7 kmh 29.41 in995.9 mb 0.00 in0.0 mm 0.00 in0.0 mm 0.00 in0.0 mm
02:06 AM 37.6°F3.1°C -169.0°F-111.7°C - 1.4 mph N2.3 kmh N 4.0 mph6.4 kmh 29.40 in995.6 mb 0.00 in0.0 mm 0.00 in0.0 mm 0.00 in0.0 mm
02:21 AM 37.8°F3.2°C -169.0°F-111.7°C - 1.4 mph N2.3 kmh N 2.8 mph4.5 kmh 29.40 in995.6 mb 0.00 in0.0 mm 0.00 in0.0 mm 0.00 in0.0 mm
02:36 AM 37.9°F3.3°C -169.0°F-111.7°C - 0.6 mph N1.0 kmh N 2.0 mph3.2 kmh 29.40 in995.6 mb 0.00 in0.0 mm 0.00 in0.0 mm 0.00 in0.0 mm
02:51 AM 38.1°F3.4°C -169.0°F-111.7°C - 2.0 mph N3.2 kmh N 4.0 mph6.4 kmh 29.39 in995.3 mb 0.00 in0.0 mm 0.00 in0.0 mm 0.00 in0.0 mm
03:06 AM 38.1°F3.4°C -169.0°F-111.7°C - 1.4 mph N2.3 kmh N 3.4 mph5.5 kmh 29.39 in995.3 mb 0.00 in0.0 mm 0.00 in0.0 mm 0.00 in0.0 mm
03:21 AM 38.1°F3.4°C -169.0°F-111.7°C - 0.6 mph N1.0 kmh N 2.8 mph4.5 kmh 29.38 in994.9 mb 0.00 in0.0 mm 0.00 in0.0 mm 0.00 in0.0 mm
03:36 AM 38.1°F3.4°C -169.0°F-111.7°C - Calm Calm 2.0 mph3.2 kmh 29.38 in994.9 mb 0.00 in0.0 mm 0.00 in0.0 mm 0.00 in0.0 mm
03:51 AM 38.1°F3.4°C -169.0°F-111.7°C - 0.6 mph N1.0 kmh N 1.4 mph2.3 kmh 29.38 in994.9 mb 0.00 in0.0 mm 0.00 in0.0 mm 0.00 in0.0 mm
04:06 AM 38.3°F3.5°C -169.0°F-111.7°C - 1.4 mph N2.3 kmh N 3.4 mph5.5 kmh 29.37 in994.6 mb 0.00 in0.0 mm 0.00 in0.0 mm 0.00 in0.0 mm
04:21 AM 38.1°F3.4°C -169.0°F-111.7°C - 0.6 mph N1.0 kmh N 2.0 mph3.2 kmh 29.37 in994.6 mb 0.00 in0.0 mm 0.00 in0.0 mm 0.00 in0.0 mm
04:36 AM 38.1°F3.4°C -169.0°F-111.7°C - 1.4 mph N2.3 kmh N 4.0 mph6.4 kmh 29.37 in994.6 mb 0.00 in0.0 mm 0.00 in0.0 mm 0.00 in0.0 mm
04:51 AM 38.1°F3.4°C -169.0°F-111.7°C - 1.4 mph N2.3 kmh N 4.0 mph6.4 kmh 29.37 in994.6 mb 0.00 in0.0 mm 0.00 in0.0 mm 0.00 in0.0 mm
05:06 AM 37.9°F3.3°C -169.0°F-111.7°C - 1.4 mph N2.3 kmh N 4.0 mph6.4 kmh 29.36 in994.2 mb 0.00 in0.0 mm 0.00 in0.0 mm 0.00 in0.0 mm
05:21 AM 37.8°F3.2°C -169.0°F-111.7°C - 2.0 mph N3.2 kmh N 2.8 mph4.5 kmh 29.36 in994.2 mb 0.00 in0.0 mm 0.00 in0.0 mm 0.00 in0.0 mm
05:36 AM 37.9°F3.3°C -169.0°F-111.7°C - 1.4 mph N2.3 kmh N 4.0 mph6.4 kmh 29.35 in993.9 mb 0.00 in0.0 mm 0.00 in0.0 mm 0.00 in0.0 mm
05:51 AM 37.9°F3.3°C -169.0°F-111.7°C - 1.4 mph N2.3 kmh N 3.4 mph5.5 kmh 29.35 in993.9 mb 0.00 in0.0 mm 0.00 in0.0 mm 0.00 in0.0 mm
06:06 AM 37.9°F3.3°C -169.0°F-111.7°C - 2.0 mph N3.2 kmh N 3.4 mph5.5 kmh 29.34 in993.6 mb 0.00 in0.0 mm 0.00 in0.0 mm 0.00 in0.0 mm
06:21 AM 38.1°F3.4°C -169.0°F-111.7°C - 1.4 mph N2.3 kmh N 4.8 mph7.7 kmh 29.34 in993.6 mb 0.00 in0.0 mm 0.00 in0.0 mm 0.00 in0.0 mm
06:36 AM 37.9°F3.3°C -169.0°F-111.7°C - 2.0 mph N3.2 kmh N 5.4 mph8.7 kmh 29.34 in993.6 mb 0.00 in0.0 mm 0.00 in0.0 mm 0.00 in0.0 mm
06:51 AM 37.9°F3.3°C -169.0°F-111.7°C - 0.6 mph N1.0 kmh N 3.4 mph5.5 kmh 29.34 in993.6 mb 0.00 in0.0 mm 0.00 in0.0 mm 0.00 in0.0 mm
07:06 AM 38.3°F3.5°C -169.0°F-111.7°C - 1.4 mph N2.3 kmh N 3.4 mph5.5 kmh 29.34 in993.6 mb 0.00 in0.0 mm 0.00 in0.0 mm 0.00 in0.0 mm
07:21 AM 38.5°F3.6°C -169.0°F-111.7°C - 2.0 mph N3.2 kmh N 4.8 mph7.7 kmh 29.33 in993.2 mb 0.00 in0.0 mm 0.00 in0.0 mm 0.00 in0.0 mm
07:36 AM 38.8°F3.8°C -168.9°F-111.6°C - 1.4 mph N2.3 kmh N 3.4 mph5.5 kmh 29.33 in993.2 mb 0.00 in0.0 mm 0.00 in0.0 mm 0.00 in0.0 mm
07:51 AM 39.9°F4.4°C -168.8°F-111.6°C - 1.4 mph N2.3 kmh N 4.8 mph7.7 kmh 29.33 in993.2 mb 0.00 in0.0 mm 0.00 in0.0 mm 0.00 in0.0 mm
08:06 AM 41.0°F5.0°C -168.7°F-111.5°C - 0.6 mph N1.0 kmh N 2.8 mph4.5 kmh 29.33 in993.2 mb 0.00 in0.0 mm 0.00 in0.0 mm 0.00 in0.0 mm
08:21 AM 41.9°F5.5°C -168.6°F-111.4°C - Calm Calm 2.0 mph3.2 kmh 29.33 in993.2 mb 0.00 in0.0 mm 0.00 in0.0 mm 0.00 in0.0 mm
08:36 AM 42.3°F5.7°C -168.6°F-111.4°C - 2.0 mph N3.2 kmh N 3.4 mph5.5 kmh 29.32 in992.9 mb 0.00 in0.0 mm 0.00 in0.0 mm 0.00 in0.0 mm
08:51 AM 42.6°F5.9°C -168.5°F-111.4°C - 1.4 mph N2.3 kmh N 4.8 mph7.7 kmh 29.31 in992.6 mb 0.00 in0.0 mm 0.00 in0.0 mm 0.00 in0.0 mm
09:06 AM 43.2°F6.2°C -168.5°F-111.4°C - 2.8 mph N4.5 kmh N 4.8 mph7.7 kmh 29.31 in992.6 mb 0.00 in0.0 mm 0.00 in0.0 mm 0.00 in0.0 mm
09:21 AM 43.7°F6.5°C -168.4°F-111.3°C - 1.4 mph N2.3 kmh N 4.0 mph6.4 kmh 29.31 in992.6 mb 0.00 in0.0 mm 0.00 in0.0 mm 0.00 in0.0 mm
09:36 AM 44.4°F6.9°C -168.4°F-111.3°C - 0.6 mph N1.0 kmh N 2.8 mph4.5 kmh 29.31 in992.6 mb 0.00 in0.0 mm 0.00 in0.0 mm 0.00 in0.0 mm
09:51 AM 45.1°F7.3°C -168.3°F-111.3°C - 1.4 mph N2.3 kmh N 2.8 mph4.5 kmh 29.31 in992.6 mb 0.00 in0.0 mm 0.00 in0.0 mm 0.00 in0.0 mm
10:06 AM 45.5°F7.5°C -168.3°F-111.3°C - 0.6 mph N1.0 kmh N 3.4 mph5.5 kmh 29.31 in992.6 mb 0.00 in0.0 mm 0.00 in0.0 mm 0.00 in0.0 mm
10:21 AM 46.4°F8.0°C -168.2°F-111.2°C - 0.6 mph N1.0 kmh N 2.8 mph4.5 kmh 29.30 in992.2 mb 0.00 in0.0 mm 0.00 in0.0 mm 0.00 in0.0 mm
10:36 AM 46.9°F8.3°C -168.1°F-111.2°C - 2.0 mph N3.2 kmh N 4.8 mph7.7 kmh 29.30 in992.2 mb 0.00 in0.0 mm 0.00 in0.0 mm 0.00 in0.0 mm
10:51 AM 47.3°F8.5°C -168.1°F-111.2°C - 1.4 mph N2.3 kmh N 4.8 mph7.7 kmh 29.30 in992.2 mb 0.00 in0.0 mm 0.00 in0.0 mm 0.00 in0.0 mm
11:06 AM 47.5°F8.6°C -168.1°F-111.2°C - 0.6 mph N1.0 kmh N 4.8 mph7.7 kmh 29.29 in991.9 mb 0.00 in0.0 mm 0.00 in0.0 mm 0.00 in0.0 mm
11:21 AM 48.0°F8.9°C -168.0°F-111.1°C - 1.4 mph N2.3 kmh N 4.0 mph6.4 kmh 29.29 in991.9 mb 0.00 in0.0 mm 0.00 in0.0 mm 0.00 in0.0 mm
11:36 AM 49.3°F9.6°C -167.9°F-111.1°C - 1.4 mph N2.3 kmh N 4.0 mph6.4 kmh 29.28 in991.5 mb 0.00 in0.0 mm 0.00 in0.0 mm 0.00 in0.0 mm
11:51 AM 50.2°F10.1°C -167.8°F-111.0°C - 1.4 mph N2.3 kmh N 3.4 mph5.5 kmh 29.28 in991.5 mb 0.00 in0.0 mm 0.00 in0.0 mm 0.00 in0.0 mm
12:06 PM 50.5°F10.3°C -167.7°F-110.9°C - 0.6 mph N1.0 kmh N 3.4 mph5.5 kmh 29.28 in991.5 mb 0.00 in0.0 mm 0.00 in0.0 mm 0.00 in0.0 mm
12:21 PM 50.9°F10.5°C -167.7°F-110.9°C - 1.4 mph N2.3 kmh N 4.0 mph6.4 kmh 29.28 in991.5 mb 0.00 in0.0 mm 0.00 in0.0 mm 0.00 in0.0 mm
12:36 PM 51.8°F11.0°C -167.6°F-110.9°C - Calm Calm 1.4 mph2.3 kmh 29.27 in991.2 mb 0.00 in0.0 mm 0.00 in0.0 mm 0.00 in0.0 mm
12:51 PM 52.0°F11.1°C -167.6°F-110.9°C - 1.4 mph N2.3 kmh N 4.0 mph6.4 kmh 29.26 in990.9 mb 0.00 in0.0 mm 0.00 in0.0 mm 0.00 in0.0 mm
01:06 PM 52.5°F11.4°C -167.5°F-110.8°C - Calm Calm 1.4 mph2.3 kmh 29.26 in990.9 mb 0.00 in0.0 mm 0.00 in0.0 mm 0.00 in0.0 mm
01:21 PM 54.0°F12.2°C -167.4°F-110.8°C - 2.0 mph N3.2 kmh N 4.0 mph6.4 kmh 29.25 in990.5 mb 0.00 in0.0 mm 0.00 in0.0 mm 0.00 in0.0 mm
01:36 PM 55.0°F12.8°C -167.3°F-110.7°C - 1.4 mph N2.3 kmh N 2.8 mph4.5 kmh 29.25 in990.5 mb 0.00 in0.0 mm 0.00 in0.0 mm 0.00 in0.0 mm
01:51 PM 55.8°F13.2°C -167.2°F-110.7°C - 0.6 mph N1.0 kmh N 3.4 mph5.5 kmh 29.24 in990.2 mb 0.00 in0.0 mm 0.00 in0.0 mm 0.00 in0.0 mm
02:06 PM 55.6°F13.1°C -167.2°F-110.7°C - 0.6 mph N1.0 kmh N 3.4 mph5.5 kmh 29.25 in990.5 mb 0.00 in0.0 mm 0.00 in0.0 mm 0.00 in0.0 mm
02:21 PM 55.9°F13.3°C -167.2°F-110.7°C - 1.4 mph N2.3 kmh N 3.4 mph5.5 kmh 29.24 in990.2 mb 0.00 in0.0 mm 0.00 in0.0 mm 0.00 in0.0 mm
02:36 PM 56.3°F13.5°C -167.2°F-110.7°C - 0.6 mph N1.0 kmh N 2.0 mph3.2 kmh 29.24 in990.2 mb 0.00 in0.0 mm 0.00 in0.0 mm 0.00 in0.0 mm
02:51 PM 56.8°F13.8°C -167.1°F-110.6°C - Calm Calm 2.0 mph3.2 kmh 29.24 in990.2 mb 0.00 in0.0 mm 0.00 in0.0 mm 0.00 in0.0 mm
03:06 PM 57.0°F13.9°C -167.1°F-110.6°C - 1.4 mph N2.3 kmh N 2.8 mph4.5 kmh 29.23 in989.8 mb 0.00 in0.0 mm 0.00 in0.0 mm 0.00 in0.0 mm
03:21 PM 57.2°F14.0°C -167.1°F-110.6°C - 0.6 mph N1.0 kmh N 2.8 mph4.5 kmh 29.23 in989.8 mb 0.00 in0.0 mm 0.00 in0.0 mm 0.00 in0.0 mm
03:36 PM 57.4°F14.1°C -167.1°F-110.6°C - 0.6 mph N1.0 kmh N 2.0 mph3.2 kmh 29.22 in989.5 mb 0.00 in0.0 mm 0.00 in0.0 mm 0.00 in0.0 mm
03:51 PM 57.6°F14.2°C -167.0°F-110.6°C - 0.6 mph N1.0 kmh N 2.0 mph3.2 kmh 29.22 in989.5 mb 0.00 in0.0 mm 0.00 in0.0 mm 0.00 in0.0 mm
04:06 PM 57.4°F14.1°C -167.1°F-110.6°C - 0.6 mph N1.0 kmh N 2.8 mph4.5 kmh 29.22 in989.5 mb 0.00 in0.0 mm 0.00 in0.0 mm 0.00 in0.0 mm
04:21 PM 57.6°F14.2°C -167.0°F-110.6°C - 0.6 mph N1.0 kmh N 2.0 mph3.2 kmh 29.22 in989.5 mb 0.00 in0.0 mm 0.00 in0.0 mm 0.00 in0.0 mm
04:36 PM 57.4°F14.1°C -167.1°F-110.6°C - 0.6 mph N1.0 kmh N 2.0 mph3.2 kmh 29.22 in989.5 mb 0.00 in0.0 mm 0.00 in0.0 mm 0.00 in0.0 mm
04:51 PM 57.2°F14.0°C -167.1°F-110.6°C - 1.4 mph N2.3 kmh N 2.8 mph4.5 kmh 29.22 in989.5 mb 0.00 in0.0 mm 0.00 in0.0 mm 0.00 in0.0 mm
05:06 PM 57.0°F13.9°C -167.1°F-110.6°C - 0.6 mph N1.0 kmh N 2.8 mph4.5 kmh 29.21 in989.2 mb 0.00 in0.0 mm 0.00 in0.0 mm 0.00 in0.0 mm
05:21 PM 56.1°F13.4°C -167.2°F-110.7°C - Calm Calm 2.0 mph3.2 kmh 29.21 in989.2 mb 0.00 in0.0 mm 0.00 in0.0 mm 0.00 in0.0 mm
05:36 PM 55.8°F13.2°C -167.2°F-110.7°C - Calm Calm 2.0 mph3.2 kmh 29.21 in989.2 mb 0.00 in0.0 mm 0.00 in0.0 mm 0.00 in0.0 mm
05:51 PM 55.2°F12.9°C -167.3°F-110.7°C - 0.6 mph N1.0 kmh N 2.0 mph3.2 kmh 29.22 in989.5 mb 0.00 in0.0 mm 0.00 in0.0 mm 0.00 in0.0 mm
06:06 PM 54.5°F12.5°C -167.4°F-110.8°C - Calm Calm 1.4 mph2.3 kmh 29.21 in989.2 mb 0.00 in0.0 mm 0.00 in0.0 mm 0.00 in0.0 mm
06:21 PM 53.4°F11.9°C -167.5°F-110.8°C - Calm Calm 2.8 mph4.5 kmh 29.22 in989.5 mb 0.00 in0.0 mm 0.00 in0.0 mm 0.00 in0.0 mm
06:36 PM 52.3°F11.3°C -167.6°F-110.9°C - Calm Calm 1.4 mph2.3 kmh 29.22 in989.5 mb 0.00 in0.0 mm 0.00 in0.0 mm 0.00 in0.0 mm
06:51 PM 51.8°F11.0°C -167.6°F-110.9°C - 1.4 mph N2.3 kmh N 2.8 mph4.5 kmh 29.21 in989.2 mb 0.00 in0.0 mm 0.00 in0.0 mm 0.00 in0.0 mm
07:06 PM 51.6°F10.9°C -167.6°F-110.9°C - Calm Calm 2.0 mph3.2 kmh 29.21 in989.2 mb 0.00 in0.0 mm 0.00 in0.0 mm 0.00 in0.0 mm
07:21 PM 51.3°F10.7°C -167.7°F-110.9°C - 0.6 mph N1.0 kmh N 2.8 mph4.5 kmh 29.21 in989.2 mb 0.00 in0.0 mm 0.00 in0.0 mm 0.00 in0.0 mm
07:36 PM 50.9°F10.5°C -167.7°F-110.9°C - 0.6 mph N1.0 kmh N 2.0 mph3.2 kmh 29.21 in989.2 mb 0.00 in0.0 mm 0.00 in0.0 mm 0.00 in0.0 mm
07:51 PM 50.7°F10.4°C -167.7°F-110.9°C - Calm Calm 2.8 mph4.5 kmh 29.20 in988.8 mb 0.00 in0.0 mm 0.00 in0.0 mm 0.00 in0.0 mm
08:06 PM 50.7°F10.4°C -167.7°F-110.9°C - 0.6 mph N1.0 kmh N 4.0 mph6.4 kmh 29.20 in988.8 mb 0.00 in0.0 mm 0.00 in0.0 mm 0.00 in0.0 mm
08:21 PM 51.1°F10.6°C -167.7°F-110.9°C - 0.6 mph N1.0 kmh N 2.8 mph4.5 kmh 29.19 in988.5 mb 0.00 in0.0 mm 0.00 in0.0 mm 0.00 in0.0 mm
08:36 PM 50.7°F10.4°C -167.7°F-110.9°C - 1.4 mph N2.3 kmh N 3.4 mph5.5 kmh 29.20 in988.8 mb 0.00 in0.0 mm 0.00 in0.0 mm 0.00 in0.0 mm
08:51 PM 50.5°F10.3°C -167.7°F-110.9°C - 1.4 mph N2.3 kmh N 3.4 mph5.5 kmh 29.19 in988.5 mb 0.00 in0.0 mm 0.00 in0.0 mm 0.00 in0.0 mm
09:06 PM 50.2°F10.1°C -167.8°F-111.0°C - 0.6 mph N1.0 kmh N 2.0 mph3.2 kmh 29.19 in988.5 mb 0.00 in0.0 mm 0.00 in0.0 mm 0.00 in0.0 mm
09:21 PM 50.0°F10.0°C -167.8°F-111.0°C - 1.4 mph N2.3 kmh N 2.8 mph4.5 kmh 29.19 in988.5 mb 0.00 in0.0 mm 0.00 in0.0 mm 0.00 in0.0 mm
09:36 PM 50.2°F10.1°C -167.8°F-111.0°C - 0.6 mph N1.0 kmh N 3.4 mph5.5 kmh 29.18 in988.1 mb 0.00 in0.0 mm 0.00 in0.0 mm 0.00 in0.0 mm
09:51 PM 49.8°F9.9°C -167.8°F-111.0°C - 1.4 mph N2.3 kmh N 4.0 mph6.4 kmh 29.18 in988.1 mb 0.00 in0.0 mm 0.00 in0.0 mm 0.00 in0.0 mm
10:06 PM 50.0°F10.0°C -167.8°F-111.0°C - 1.4 mph N2.3 kmh N 3.4 mph5.5 kmh 29.18 in988.1 mb 0.00 in0.0 mm 0.00 in0.0 mm 0.00 in0.0 mm
10:21 PM 50.0°F10.0°C -167.8°F-111.0°C - 2.0 mph N3.2 kmh N 6.2 mph10.0 kmh 29.18 in988.1 mb 0.00 in0.0 mm 0.00 in0.0 mm 0.00 in0.0 mm
10:36 PM 50.0°F10.0°C -167.8°F-111.0°C - 1.4 mph N2.3 kmh N 4.0 mph6.4 kmh 29.18 in988.1 mb 0.00 in0.0 mm 0.00 in0.0 mm 0.00 in0.0 mm
10:51 PM 49.8°F9.9°C -167.8°F-111.0°C - 1.4 mph N2.3 kmh N 4.0 mph6.4 kmh 29.17 in987.8 mb 0.00 in0.0 mm 0.00 in0.0 mm 0.00 in0.0 mm
11:06 PM 50.0°F10.0°C -167.8°F-111.0°C - 1.4 mph N2.3 kmh N 2.8 mph4.5 kmh 29.17 in987.8 mb 0.00 in0.0 mm 0.00 in0.0 mm 0.00 in0.0 mm
11:21 PM 50.0°F10.0°C -167.8°F-111.0°C - 1.4 mph N2.3 kmh N 4.8 mph7.7 kmh 29.16 in987.5 mb 0.00 in0.0 mm 0.00 in0.0 mm 0.00 in0.0 mm
11:36 PM 50.2°F10.1°C -167.8°F-111.0°C - 1.4 mph N2.3 kmh N 4.8 mph7.7 kmh 29.16 in987.5 mb 0.00 in0.0 mm 0.00 in0.0 mm 0.00 in0.0 mm
11:51 PM 50.4°F10.2°C -167.8°F-111.0°C - 2.0 mph N3.2 kmh N 6.2 mph10.0 kmh 29.16 in987.5 mb 0.00 in0.0 mm 0.00 in0.0 mm 0.00 in0.0 mm